sensor_id;sensor_type;location;lat;lon;timestamp;pressure;altitude;pressure_sealevel;temperature;humidity
73674;BME280;61975;48.660;10.164;2023-07-13T00:01:15;95565.56;;;20.07;100.00
73674;BME280;61975;48.660;10.164;2023-07-13T00:03:41;95558.56;;;19.99;100.00
73674;BME280;61975;48.660;10.164;2023-07-13T00:06:07;95556.41;;;20.03;100.00
73674;BME280;61975;48.660;10.164;2023-07-13T00:08:33;95556.63;;;19.96;100.00
73674;BME280;61975;48.660;10.164;2023-07-13T00:11:02;95562.25;;;19.96;100.00
73674;BME280;61975;48.660;10.164;2023-07-13T00:13:29;95570.34;;;19.94;100.00
73674;BME280;61975;48.660;10.164;2023-07-13T00:15:57;95563.50;;;19.95;100.00
73674;BME280;61975;48.660;10.164;2023-07-13T00:18:23;95568.25;;;19.98;100.00
73674;BME280;61975;48.660;10.164;2023-07-13T00:20:48;95568.78;;;19.93;100.00
73674;BME280;61975;48.660;10.164;2023-07-13T00:23:14;95580.94;;;19.90;100.00
73674;BME280;61975;48.660;10.164;2023-07-13T00:25:39;95585.00;;;19.89;100.00
73674;BME280;61975;48.660;10.164;2023-07-13T00:28:05;95577.06;;;19.84;100.00
73674;BME280;61975;48.660;10.164;2023-07-13T00:30:30;95575.94;;;19.82;100.00
73674;BME280;61975;48.660;10.164;2023-07-13T00:32:56;95568.63;;;19.84;100.00
73674;BME280;61975;48.660;10.164;2023-07-13T00:35:21;95572.75;;;19.67;100.00
73674;BME280;61975;48.660;10.164;2023-07-13T00:37:47;95573.63;;;19.64;100.00
73674;BME280;61975;48.660;10.164;2023-07-13T00:40:13;95585.28;;;19.50;96.16
73674;BME280;61975;48.660;10.164;2023-07-13T00:42:40;95586.28;;;19.56;97.37
73674;BME280;61975;48.660;10.164;2023-07-13T00:47:36;95583.41;;;19.60;96.52
73674;BME280;61975;48.660;10.164;2023-07-13T00:50:02;95572.47;;;19.62;97.52
73674;BME280;61975;48.660;10.164;2023-07-13T00:52:29;95574.41;;;19.65;100.00
73674;BME280;61975;48.660;10.164;2023-07-13T00:54:55;95572.75;;;19.67;100.00
73674;BME280;61975;48.660;10.164;2023-07-13T00:57:21;95574.78;;;19.51;98.48
73674;BME280;61975;48.660;10.164;2023-07-13T00:59:52;95566.59;;;19.56;99.47
73674;BME280;61975;48.660;10.164;2023-07-13T01:02:19;95553.56;;;19.62;100.00
73674;BME280;61975;48.660;10.164;2023-07-13T01:04:47;95552.31;;;19.63;100.00
73674;BME280;61975;48.660;10.164;2023-07-13T01:07:12;95558.66;;;19.67;100.00
73674;BME280;61975;48.660;10.164;2023-07-13T01:09:38;95557.84;;;19.67;100.00
73674;BME280;61975;48.660;10.164;2023-07-13T01:12:04;95568.00;;;19.64;100.00
73674;BME280;61975;48.660;10.164;2023-07-13T01:14:29;95562.88;;;19.59;100.00
73674;BME280;61975;48.660;10.164;2023-07-13T01:16:55;95573.25;;;19.62;100.00
73674;BME280;61975;48.660;10.164;2023-07-13T01:19:33;95568.63;;;19.56;100.00
73674;BME280;61975;48.660;10.164;2023-07-13T01:22:13;95566.25;;;19.38;96.79
73674;BME280;61975;48.660;10.164;2023-07-13T01:24:41;95568.75;;;19.36;94.36
73674;BME280;61975;48.660;10.164;2023-07-13T01:27:09;95574.03;;;19.34;91.09
73674;BME280;61975;48.660;10.164;2023-07-13T01:29:36;95580.41;;;19.19;85.93
73674;BME280;61975;48.660;10.164;2023-07-13T01:32:09;95573.28;;;19.14;83.71
73674;BME280;61975;48.660;10.164;2023-07-13T01:34:35;95578.03;;;19.17;83.88
73674;BME280;61975;48.660;10.164;2023-07-13T01:37:02;95582.44;;;19.02;82.37
73674;BME280;61975;48.660;10.164;2023-07-13T01:39:28;95577.75;;;18.95;79.41
73674;BME280;61975;48.660;10.164;2023-07-13T01:41:53;95580.91;;;18.81;79.45
73674;BME280;61975;48.660;10.164;2023-07-13T01:44:18;95575.56;;;18.87;80.67
73674;BME280;61975;48.660;10.164;2023-07-13T01:46:44;95576.56;;;18.96;81.56
73674;BME280;61975;48.660;10.164;2023-07-13T01:49:09;95586.56;;;18.97;80.88
73674;BME280;61975;48.660;10.164;2023-07-13T01:51:35;95585.78;;;18.97;79.47
73674;BME280;61975;48.660;10.164;2023-07-13T01:54:00;95585.06;;;18.93;80.28
73674;BME280;61975;48.660;10.164;2023-07-13T01:56:25;95583.31;;;18.99;81.32
73674;BME280;61975;48.660;10.164;2023-07-13T01:58:51;95578.41;;;19.03;82.82
73674;BME280;61975;48.660;10.164;2023-07-13T02:01:17;95577.16;;;19.04;85.68
73674;BME280;61975;48.660;10.164;2023-07-13T02:03:42;95577.53;;;19.06;85.68
73674;BME280;61975;48.660;10.164;2023-07-13T02:06:07;95575.94;;;19.05;84.46
73674;BME280;61975;48.660;10.164;2023-07-13T02:08:33;95566.78;;;19.01;83.95
73674;BME280;61975;48.660;10.164;2023-07-13T02:10:59;95571.44;;;18.91;82.75
73674;BME280;61975;48.660;10.164;2023-07-13T02:13:24;95568.38;;;18.70;77.89
73674;BME280;61975;48.660;10.164;2023-07-13T02:15:51;95572.44;;;18.49;76.04
73674;BME280;61975;48.660;10.164;2023-07-13T02:18:16;95575.53;;;18.55;77.00
73674;BME280;61975;48.660;10.164;2023-07-13T02:20:42;95577.63;;;18.51;75.61
73674;BME280;61975;48.660;10.164;2023-07-13T02:23:08;95576.22;;;18.43;74.42
73674;BME280;61975;48.660;10.164;2023-07-13T02:25:33;95581.56;;;18.37;73.40
73674;BME280;61975;48.660;10.164;2023-07-13T02:27:58;95581.03;;;18.23;74.24
73674;BME280;61975;48.660;10.164;2023-07-13T02:30:24;95586.25;;;18.05;71.96
73674;BME280;61975;48.660;10.164;2023-07-13T02:32:50;95586.53;;;17.91;71.88
73674;BME280;61975;48.660;10.164;2023-07-13T02:35:15;95592.72;;;17.82;72.71
73674;BME280;61975;48.660;10.164;2023-07-13T02:37:41;95606.53;;;17.73;71.81
73674;BME280;61975;48.660;10.164;2023-07-13T02:40:07;95606.81;;;17.79;72.66
73674;BME280;61975;48.660;10.164;2023-07-13T02:42:34;95603.38;;;17.71;72.88
73674;BME280;61975;48.660;10.164;2023-07-13T02:44:59;95606.59;;;17.70;73.04
73674;BME280;61975;48.660;10.164;2023-07-13T02:47:25;95603.78;;;17.70;71.43
73674;BME280;61975;48.660;10.164;2023-07-13T02:49:51;95605.72;;;17.73;72.57
73674;BME280;61975;48.660;10.164;2023-07-13T02:52:17;95600.56;;;17.91;71.90
73674;BME280;61975;48.660;10.164;2023-07-13T02:54:42;95593.72;;;17.92;71.20
73674;BME280;61975;48.660;10.164;2023-07-13T02:57:07;95600.28;;;18.05;70.93
73674;BME280;61975;48.660;10.164;2023-07-13T02:59:33;95601.63;;;17.97;70.63
73674;BME280;61975;48.660;10.164;2023-07-13T03:01:58;95611.66;;;17.98;70.83
73674;BME280;61975;48.660;10.164;2023-07-13T03:04:25;95603.09;;;18.05;70.19
73674;BME280;61975;48.660;10.164;2023-07-13T03:06:50;95605.97;;;18.01;69.73
73674;BME280;61975;48.660;10.164;2023-07-13T03:09:16;95608.78;;;18.01;70.49
73674;BME280;61975;48.660;10.164;2023-07-13T03:11:42;95604.66;;;18.06;70.12
73674;BME280;61975;48.660;10.164;2023-07-13T03:14:07;95599.34;;;17.92;70.24
73674;BME280;61975;48.660;10.164;2023-07-13T03:16:33;95597.91;;;17.84;69.94
73674;BME280;61975;48.660;10.164;2023-07-13T03:18:58;95591.28;;;17.94;70.52
73674;BME280;61975;48.660;10.164;2023-07-13T03:21:24;95593.72;;;17.92;71.49
73674;BME280;61975;48.660;10.164;2023-07-13T03:23:49;95596.53;;;17.92;71.68
73674;BME280;61975;48.660;10.164;2023-07-13T03:26:17;95592.63;;;17.86;71.62
73674;BME280;61975;48.660;10.164;2023-07-13T03:28:44;95599.34;;;17.92;71.53
73674;BME280;61975;48.660;10.164;2023-07-13T03:31:13;95616.34;;;17.85;72.96
73674;BME280;61975;48.660;10.164;2023-07-13T03:33:39;95606.81;;;17.79;72.71
73674;BME280;61975;48.660;10.164;2023-07-13T03:36:06;95615.75;;;17.74;72.67
73674;BME280;61975;48.660;10.164;2023-07-13T03:38:32;95619.84;;;17.69;73.30
73674;BME280;61975;48.660;10.164;2023-07-13T03:40:57;95617.09;;;17.66;72.30
73674;BME280;61975;48.660;10.164;2023-07-13T03:43:23;95615.28;;;17.56;73.74
73674;BME280;61975;48.660;10.164;2023-07-13T03:45:48;95612.09;;;17.54;73.31
73674;BME280;61975;48.660;10.164;2023-07-13T03:48:14;95628.16;;;17.53;72.18
73674;BME280;61975;48.660;10.164;2023-07-13T03:50:40;95625.63;;;17.36;72.68
73674;BME280;61975;48.660;10.164;2023-07-13T03:53:06;95625.84;;;17.48;72.54
73674;BME280;61975;48.660;10.164;2023-07-13T03:55:31;95624.56;;;17.53;71.95
73674;BME280;61975;48.660;10.164;2023-07-13T03:58:23;95637.41;;;17.50;71.53
73674;BME280;61975;48.660;10.164;2023-07-13T04:00:49;95629.94;;;17.44;71.77
73674;BME280;61975;48.660;10.164;2023-07-13T04:03:15;95641.03;;;17.51;72.32
73674;BME280;61975;48.660;10.164;2023-07-13T04:05:41;95637.41;;;17.50;72.88
73674;BME280;61975;48.660;10.164;2023-07-13T04:08:07;95637.66;;;17.59;73.07
73674;BME280;61975;48.660;10.164;2023-07-13T04:10:32;95640.00;;;17.64;73.59
73674;BME280;61975;48.660;10.164;2023-07-13T04:12:57;95650.34;;;17.67;74.38
73674;BME280;61975;48.660;10.164;2023-07-13T04:15:23;95647.09;;;17.69;73.76
73674;BME280;61975;48.660;10.164;2023-07-13T04:17:48;95642.97;;;17.77;73.79
73674;BME280;61975;48.660;10.164;2023-07-13T04:20:13;95640.47;;;17.82;73.58
73674;BME280;61975;48.660;10.164;2023-07-13T04:22:39;95644.47;;;17.81;73.54
73674;BME280;61975;48.660;10.164;2023-07-13T04:25:04;95646.28;;;17.91;77.16
73674;BME280;61975;48.660;10.164;2023-07-13T04:27:30;95650.13;;;18.01;75.38
73674;BME280;61975;48.660;10.164;2023-07-13T04:29:56;95653.16;;;18.10;76.77
73674;BME280;61975;48.660;10.164;2023-07-13T04:32:21;95656.53;;;18.21;77.81
73674;BME280;61975;48.660;10.164;2023-07-13T04:34:46;95653.16;;;18.29;77.06
73674;BME280;61975;48.660;10.164;2023-07-13T04:37:12;95665.88;;;18.37;74.33
73674;BME280;61975;48.660;10.164;2023-07-13T04:39:37;95663.34;;;18.43;73.82
73674;BME280;61975;48.660;10.164;2023-07-13T04:42:03;95661.59;;;18.49;73.94
73674;BME280;61975;48.660;10.164;2023-07-13T04:44:29;95672.69;;;18.56;70.98
73674;BME280;61975;48.660;10.164;2023-07-13T04:46:54;95657.75;;;18.59;69.29
73674;BME280;61975;48.660;10.164;2023-07-13T04:49:20;95668.56;;;18.60;68.92
73674;BME280;61975;48.660;10.164;2023-07-13T04:51:45;95668.16;;;18.62;68.87
73674;BME280;61975;48.660;10.164;2023-07-13T04:54:10;95675.38;;;18.63;67.59
73674;BME280;61975;48.660;10.164;2023-07-13T04:56:36;95682.56;;;18.64;67.28
73674;BME280;61975;48.660;10.164;2023-07-13T04:59:01;95682.16;;;18.65;67.95
73674;BME280;61975;48.660;10.164;2023-07-13T05:01:27;95677.28;;;18.66;68.04
73674;BME280;61975;48.660;10.164;2023-07-13T05:03:52;95683.72;;;18.66;67.88
73674;BME280;61975;48.660;10.164;2023-07-13T05:06:18;95682.84;;;18.69;67.71
73674;BME280;61975;48.660;10.164;2023-07-13T05:08:43;95682.75;;;18.73;67.66
73674;BME280;61975;48.660;10.164;2023-07-13T05:11:08;95676.28;;;18.76;67.78
73674;BME280;61975;48.660;10.164;2023-07-13T05:13:34;95683.50;;;18.77;68.10
73674;BME280;61975;48.660;10.164;2023-07-13T05:16:02;95676.97;;;18.80;69.17
73674;BME280;61975;48.660;10.164;2023-07-13T05:18:28;95680.97;;;18.82;71.21
73674;BME280;61975;48.660;10.164;2023-07-13T05:21:05;95689.75;;;18.84;70.76
73674;BME280;61975;48.660;10.164;2023-07-13T05:23:32;95694.50;;;18.87;70.10
73674;BME280;61975;48.660;10.164;2023-07-13T05:25:58;95687.09;;;18.77;65.70
73674;BME280;61975;48.660;10.164;2023-07-13T05:28:24;95696.19;;;18.85;67.48
73674;BME280;61975;48.660;10.164;2023-07-13T05:30:50;95689.59;;;18.91;68.53
73674;BME280;61975;48.660;10.164;2023-07-13T05:33:16;95694.78;;;18.93;69.22
73674;BME280;61975;48.660;10.164;2023-07-13T05:35:41;95701.13;;;18.97;68.54
73674;BME280;61975;48.660;10.164;2023-07-13T05:38:06;95703.06;;;19.00;67.84
73674;BME280;61975;48.660;10.164;2023-07-13T05:40:32;95703.78;;;19.04;70.05
73674;BME280;61975;48.660;10.164;2023-07-13T05:42:58;95714.16;;;19.07;72.50
73674;BME280;61975;48.660;10.164;2023-07-13T05:45:23;95708.09;;;19.08;71.20
73674;BME280;61975;48.660;10.164;2023-07-13T05:47:49;95713.66;;;19.12;71.60
73674;BME280;61975;48.660;10.164;2023-07-13T05:50:14;95717.19;;;19.16;72.15
73674;BME280;61975;48.660;10.164;2023-07-13T05:52:39;95715.06;;;19.20;71.72
73674;BME280;61975;48.660;10.164;2023-07-13T05:55:05;95717.94;;;19.17;69.66
73674;BME280;61975;48.660;10.164;2023-07-13T05:57:30;95724.91;;;19.12;68.38
73674;BME280;61975;48.660;10.164;2023-07-13T05:59:56;95729.50;;;19.22;67.90
73674;BME280;61975;48.660;10.164;2023-07-13T06:02:22;95721.81;;;19.26;67.54
73674;BME280;61975;48.660;10.164;2023-07-13T06:04:47;95726.47;;;19.33;67.55
73674;BME280;61975;48.660;10.164;2023-07-13T06:07:13;95733.50;;;19.41;66.66
73674;BME280;61975;48.660;10.164;2023-07-13T06:09:38;95728.03;;;19.34;62.67
73674;BME280;61975;48.660;10.164;2023-07-13T06:12:04;95733.22;;;19.35;61.36
73674;BME280;61975;48.660;10.164;2023-07-13T06:14:30;95729.53;;;19.38;62.29
73674;BME280;61975;48.660;10.164;2023-07-13T06:16:55;95738.53;;;19.33;62.48
73674;BME280;61975;48.660;10.164;2023-07-13T06:19:20;95742.25;;;19.46;61.18
73674;BME280;61975;48.660;10.164;2023-07-13T06:21:46;95738.47;;;19.53;62.06
73674;BME280;61975;48.660;10.164;2023-07-13T06:24:11;95746.03;;;19.56;63.02
73674;BME280;61975;48.660;10.164;2023-07-13T06:26:37;95750.22;;;19.32;61.42
73674;BME280;61975;48.660;10.164;2023-07-13T06:29:02;95755.09;;;19.47;61.48
73674;BME280;61975;48.660;10.164;2023-07-13T06:31:28;95758.50;;;19.39;61.80
73674;BME280;61975;48.660;10.164;2023-07-13T06:33:53;95750.41;;;19.05;63.85
73674;BME280;61975;48.660;10.164;2023-07-13T06:36:19;95766.84;;;19.26;63.08
73674;BME280;61975;48.660;10.164;2023-07-13T06:38:44;95762.97;;;19.17;63.06
73674;BME280;61975;48.660;10.164;2023-07-13T06:41:10;95765.16;;;19.29;62.76
73674;BME280;61975;48.660;10.164;2023-07-13T06:43:35;95756.34;;;19.27;62.73
73674;BME280;61975;48.660;10.164;2023-07-13T06:46:00;95761.91;;;19.30;61.41
73674;BME280;61975;48.660;10.164;2023-07-13T06:48:26;95762.78;;;19.08;60.19
73674;BME280;61975;48.660;10.164;2023-07-13T06:50:52;95762.66;;;18.95;59.83
73674;BME280;61975;48.660;10.164;2023-07-13T06:53:19;95764.03;;;18.87;59.38
73674;BME280;61975;48.660;10.164;2023-07-13T06:55:45;95759.28;;;19.03;60.13
73674;BME280;61975;48.660;10.164;2023-07-13T06:58:11;95764.28;;;19.32;59.78
73674;BME280;61975;48.660;10.164;2023-07-13T07:00:36;95759.13;;;19.46;59.63
73674;BME280;61975;48.660;10.164;2023-07-13T07:03:02;95777.97;;;19.65;57.92
73674;BME280;61975;48.660;10.164;2023-07-13T07:05:28;95776.56;;;19.73;58.04
73674;BME280;61975;48.660;10.164;2023-07-13T07:07:54;95774.03;;;19.95;55.69
73674;BME280;61975;48.660;10.164;2023-07-13T07:10:20;95777.13;;;20.16;55.77
73674;BME280;61975;48.660;10.164;2023-07-13T07:12:46;95788.94;;;20.27;55.09
73674;BME280;61975;48.660;10.164;2023-07-13T07:15:12;95781.84;;;20.35;54.17
73674;BME280;61975;48.660;10.164;2023-07-13T07:17:38;95781.97;;;20.32;53.33
73674;BME280;61975;48.660;10.164;2023-07-13T07:20:04;95783.28;;;20.43;53.56
73674;BME280;61975;48.660;10.164;2023-07-13T07:22:30;95784.59;;;20.39;54.60
73674;BME280;61975;48.660;10.164;2023-07-13T07:24:56;95781.19;;;20.60;53.33
73674;BME280;61975;48.660;10.164;2023-07-13T07:27:22;95777.19;;;20.73;51.88
73674;BME280;61975;48.660;10.164;2023-07-13T07:29:47;95781.09;;;20.92;52.36
73674;BME280;61975;48.660;10.164;2023-07-13T07:32:13;95781.84;;;21.08;52.08
73674;BME280;61975;48.660;10.164;2023-07-13T07:34:38;95784.41;;;21.03;49.61
73674;BME280;61975;48.660;10.164;2023-07-13T07:37:04;95775.84;;;21.06;47.96
73674;BME280;61975;48.660;10.164;2023-07-13T07:39:29;95782.63;;;21.09;48.75
73674;BME280;61975;48.660;10.164;2023-07-13T07:41:55;95792.59;;;21.13;49.52
73674;BME280;61975;48.660;10.164;2023-07-13T07:44:20;95794.59;;;21.13;47.99
73674;BME280;61975;48.660;10.164;2023-07-13T07:46:46;95789.75;;;21.01;47.89
73674;BME280;61975;48.660;10.164;2023-07-13T07:49:12;95793.19;;;20.92;48.67
73674;BME280;61975;48.660;10.164;2023-07-13T07:51:37;95793.94;;;21.09;47.89
73674;BME280;61975;48.660;10.164;2023-07-13T07:54:04;95799.28;;;21.19;47.79
73674;BME280;61975;48.660;10.164;2023-07-13T07:56:29;95800.53;;;21.31;47.38
73674;BME280;61975;48.660;10.164;2023-07-13T07:58:55;95801.25;;;21.06;45.88
73674;BME280;61975;48.660;10.164;2023-07-13T08:01:20;95801.78;;;21.01;45.65
73674;BME280;61975;48.660;10.164;2023-07-13T08:03:47;95803.00;;;21.16;45.89
73674;BME280;61975;48.660;10.164;2023-07-13T08:06:12;95807.59;;;21.10;45.63
73674;BME280;61975;48.660;10.164;2023-07-13T08:08:38;95816.13;;;20.94;45.25
73674;BME280;61975;48.660;10.164;2023-07-13T08:11:05;95824.50;;;20.98;43.81
73674;BME280;61975;48.660;10.164;2023-07-13T08:13:32;95818.53;;;21.08;43.98
73674;BME280;61975;48.660;10.164;2023-07-13T08:15:58;95818.94;;;20.94;43.19
73674;BME280;61975;48.660;10.164;2023-07-13T08:18:24;95819.91;;;20.88;43.79
73674;BME280;61975;48.660;10.164;2023-07-13T08:20:49;95825.63;;;20.84;44.06
73674;BME280;61975;48.660;10.164;2023-07-13T08:23:15;95825.09;;;20.89;45.30
73674;BME280;61975;48.660;10.164;2023-07-13T08:25:42;95817.84;;;21.04;45.67
73674;BME280;61975;48.660;10.164;2023-07-13T08:28:07;95814.97;;;21.20;45.37
73674;BME280;61975;48.660;10.164;2023-07-13T08:30:33;95830.13;;;21.26;44.26
73674;BME280;61975;48.660;10.164;2023-07-13T08:32:58;95827.75;;;21.25;43.48
73674;BME280;61975;48.660;10.164;2023-07-13T08:35:24;95819.94;;;21.16;42.47
73674;BME280;61975;48.660;10.164;2023-07-13T08:37:51;95811.66;;;21.09;41.55
73674;BME280;61975;48.660;10.164;2023-07-13T08:40:17;95816.28;;;21.03;43.09
73674;BME280;61975;48.660;10.164;2023-07-13T08:42:46;95819.22;;;20.84;42.28
73674;BME280;61975;48.660;10.164;2023-07-13T08:45:30;95823.50;;;21.04;42.03
73674;BME280;61975;48.660;10.164;2023-07-13T08:48:03;95831.97;;;21.04;42.21
73674;BME280;61975;48.660;10.164;2023-07-13T08:50:38;95828.56;;;20.97;42.74
73674;BME280;61975;48.660;10.164;2023-07-13T08:53:11;95838.66;;;20.66;42.08
73674;BME280;61975;48.660;10.164;2023-07-13T08:55:38;95836.97;;;20.68;42.75
73674;BME280;61975;48.660;10.164;2023-07-13T08:58:15;95836.03;;;20.87;42.92
73674;BME280;61975;48.660;10.164;2023-07-13T09:01:05;95842.91;;;21.02;43.09
73674;BME280;61975;48.660;10.164;2023-07-13T09:03:41;95837.44;;;21.24;43.27
73674;BME280;61975;48.660;10.164;2023-07-13T09:06:10;95831.38;;;21.38;43.41
73674;BME280;61975;48.660;10.164;2023-07-13T09:09:00;95836.78;;;21.32;42.43
73674;BME280;61975;48.660;10.164;2023-07-13T09:11:36;95839.13;;;21.21;43.11
73674;BME280;61975;48.660;10.164;2023-07-13T09:16:51;95836.66;;;21.23;43.53
73674;BME280;61975;48.660;10.164;2023-07-13T09:19:28;95838.47;;;21.30;42.70
73674;BME280;61975;48.660;10.164;2023-07-13T09:21:55;95829.50;;;21.47;43.11
73674;BME280;61975;48.660;10.164;2023-07-13T09:27:09;95834.63;;;21.36;42.74
73674;BME280;61975;48.660;10.164;2023-07-13T09:29:41;95829.13;;;21.45;43.05
73674;BME280;61975;48.660;10.164;2023-07-13T09:32:10;95839.41;;;21.52;43.65
73674;BME280;61975;48.660;10.164;2023-07-13T09:34:38;95829.81;;;21.62;43.22
73674;BME280;61975;48.660;10.164;2023-07-13T09:37:03;95836.91;;;21.29;43.22
73674;BME280;61975;48.660;10.164;2023-07-13T09:39:34;95838.44;;;21.17;43.89
73674;BME280;61975;48.660;10.164;2023-07-13T09:49:43;95824.16;;;21.37;44.14
73674;BME280;61975;48.660;10.164;2023-07-13T09:52:12;95831.28;;;21.54;44.18
73674;BME280;61975;48.660;10.164;2023-07-13T09:54:39;95832.34;;;21.60;43.83
73674;BME280;61975;48.660;10.164;2023-07-13T09:57:16;95833.94;;;21.74;43.24
73674;BME280;61975;48.660;10.164;2023-07-13T09:59:50;95835.19;;;21.85;43.51
73674;BME280;61975;48.660;10.164;2023-07-13T10:04:55;95825.16;;;21.97;43.07
73674;BME280;61975;48.660;10.164;2023-07-13T10:07:22;95819.34;;;22.13;43.58
73674;BME280;61975;48.660;10.164;2023-07-13T10:09:52;95816.75;;;22.31;43.49
73674;BME280;61975;48.660;10.164;2023-07-13T10:12:19;95817.06;;;22.33;42.49
73674;BME280;61975;48.660;10.164;2023-07-13T10:14:45;95833.13;;;22.36;42.74
73674;BME280;61975;48.660;10.164;2023-07-13T10:17:13;95826.47;;;22.30;42.60
73674;BME280;61975;48.660;10.164;2023-07-13T10:19:41;95827.91;;;22.47;42.79
73674;BME280;61975;48.660;10.164;2023-07-13T10:22:25;95823.38;;;22.62;42.70
73674;BME280;61975;48.660;10.164;2023-07-13T10:24:53;95830.69;;;22.72;42.85
73674;BME280;61975;48.660;10.164;2023-07-13T10:27:25;95831.78;;;22.87;42.32
73674;BME280;61975;48.660;10.164;2023-07-13T10:32:37;95819.34;;;23.06;40.76
73674;BME280;61975;48.660;10.164;2023-07-13T10:35:03;95822.53;;;23.08;41.13
73674;BME280;61975;48.660;10.164;2023-07-13T10:38:11;95832.09;;;22.89;40.68
73674;BME280;61975;48.660;10.164;2023-07-13T10:40:38;95829.72;;;22.87;40.24
73674;BME280;61975;48.660;10.164;2023-07-13T10:45:38;95830.09;;;23.11;40.28
73674;BME280;61975;48.660;10.164;2023-07-13T10:48:06;95820.34;;;23.12;40.05
73674;BME280;61975;48.660;10.164;2023-07-13T10:50:37;95820.78;;;23.23;40.21
73674;BME280;61975;48.660;10.164;2023-07-13T10:53:18;95827.53;;;23.25;39.30
73674;BME280;61975;48.660;10.164;2023-07-13T11:03:33;95807.78;;;23.56;39.45
73674;BME280;61975;48.660;10.164;2023-07-13T11:18:47;95809.91;;;23.43;39.42
73674;BME280;61975;48.660;10.164;2023-07-13T11:21:25;95808.81;;;23.49;39.50
73674;BME280;61975;48.660;10.164;2023-07-13T11:23:54;95815.91;;;23.45;39.43
73674;BME280;61975;48.660;10.164;2023-07-13T11:29:26;95808.34;;;23.72;38.10
73674;BME280;61975;48.660;10.164;2023-07-13T11:32:00;95807.13;;;23.82;38.66
73674;BME280;61975;48.660;10.164;2023-07-13T11:34:34;95807.31;;;23.88;38.01
73674;BME280;61975;48.660;10.164;2023-07-13T11:37:01;95810.75;;;23.83;37.83
73674;BME280;61975;48.660;10.164;2023-07-13T11:39:36;95809.81;;;23.86;37.70
73674;BME280;61975;48.660;10.164;2023-07-13T11:42:05;95815.34;;;23.89;37.85
73674;BME280;61975;48.660;10.164;2023-07-13T11:44:35;95797.34;;;23.74;38.18
73674;BME280;61975;48.660;10.164;2023-07-13T11:47:09;95804.69;;;23.93;37.32
73674;BME280;61975;48.660;10.164;2023-07-13T11:49:49;95792.47;;;24.06;37.17
73674;BME280;61975;48.660;10.164;2023-07-13T11:52:18;95788.06;;;24.23;37.54
73674;BME280;61975;48.660;10.164;2023-07-13T11:54:51;95800.84;;;24.27;37.07
73674;BME280;61975;48.660;10.164;2023-07-13T11:59:52;95788.28;;;24.28;37.71
73674;BME280;61975;48.660;10.164;2023-07-13T12:04:53;95793.44;;;24.21;37.05
73674;BME280;61975;48.660;10.164;2023-07-13T12:07:19;95799.88;;;24.12;36.50
73674;BME280;61975;48.660;10.164;2023-07-13T12:09:45;95791.97;;;24.07;36.81
73674;BME280;61975;48.660;10.164;2023-07-13T12:12:17;95790.72;;;24.17;36.66
73674;BME280;61975;48.660;10.164;2023-07-13T12:14:43;95795.13;;;24.09;36.01
73674;BME280;61975;48.660;10.164;2023-07-13T12:17:15;95784.28;;;24.17;36.91
73674;BME280;61975;48.660;10.164;2023-07-13T12:19:41;95792.50;;;24.24;37.02
73674;BME280;61975;48.660;10.164;2023-07-13T12:22:09;95795.34;;;24.24;36.19
73674;BME280;61975;48.660;10.164;2023-07-13T12:24:37;95797.41;;;24.41;36.61
73674;BME280;61975;48.660;10.164;2023-07-13T12:27:04;95793.00;;;24.40;36.30
73674;BME280;61975;48.660;10.164;2023-07-13T12:29:32;95802.19;;;24.53;36.43
73674;BME280;61975;48.660;10.164;2023-07-13T12:31:58;95786.22;;;24.38;36.18
73674;BME280;61975;48.660;10.164;2023-07-13T12:34:26;95782.78;;;24.52;36.42
73674;BME280;61975;48.660;10.164;2023-07-13T12:36:54;95780.03;;;24.79;36.52
73674;BME280;61975;48.660;10.164;2023-07-13T12:39:43;95795.31;;;24.90;36.03
73674;BME280;61975;48.660;10.164;2023-07-13T12:42:31;95801.63;;;25.03;35.85
73674;BME280;61975;48.660;10.164;2023-07-13T12:45:01;95791.69;;;25.08;35.62
73674;BME280;61975;48.660;10.164;2023-07-13T12:47:28;95791.53;;;25.11;35.21
73674;BME280;61975;48.660;10.164;2023-07-13T12:49:57;95784.25;;;25.19;35.39
73674;BME280;61975;48.660;10.164;2023-07-13T12:52:29;95784.75;;;25.27;35.39
73674;BME280;61975;48.660;10.164;2023-07-13T12:55:12;95776.53;;;25.38;35.36
73674;BME280;61975;48.660;10.164;2023-07-13T12:57:41;95778.91;;;25.39;35.43
73674;BME280;61975;48.660;10.164;2023-07-13T13:02:53;95777.31;;;25.38;35.15
73674;BME280;61975;48.660;10.164;2023-07-13T13:05:18;95775.56;;;25.50;34.85
73674;BME280;61975;48.660;10.164;2023-07-13T13:07:49;95774.75;;;25.58;34.76
73674;BME280;61975;48.660;10.164;2023-07-13T13:10:14;95774.41;;;25.65;34.92
73674;BME280;61975;48.660;10.164;2023-07-13T13:12:40;95767.28;;;25.79;34.48
73674;BME280;61975;48.660;10.164;2023-07-13T13:15:10;95763.91;;;25.98;35.04
73674;BME280;61975;48.660;10.164;2023-07-13T13:17:37;95756.91;;;26.08;34.25
73674;BME280;61975;48.660;10.164;2023-07-13T13:20:18;95763.00;;;26.16;34.13
73674;BME280;61975;48.660;10.164;2023-07-13T13:22:44;95769.78;;;26.18;33.97
73674;BME280;61975;48.660;10.164;2023-07-13T13:25:11;95758.81;;;26.02;33.63
73674;BME280;61975;48.660;10.164;2023-07-13T13:27:36;95762.97;;;25.83;32.96
73674;BME280;61975;48.660;10.164;2023-07-13T13:30:02;95756.78;;;25.94;33.47
73674;BME280;61975;48.660;10.164;2023-07-13T13:32:28;95754.06;;;26.08;33.45
73674;BME280;61975;48.660;10.164;2023-07-13T13:34:53;95762.94;;;25.92;33.65
73674;BME280;61975;48.660;10.164;2023-07-13T13:37:22;95752.59;;;25.71;33.28
73674;BME280;61975;48.660;10.164;2023-07-13T13:39:48;95750.25;;;25.61;33.85
73674;BME280;61975;48.660;10.164;2023-07-13T13:42:14;95755.78;;;25.64;33.43
73674;BME280;61975;48.660;10.164;2023-07-13T13:44:39;95757.06;;;25.45;33.39
73674;BME280;61975;48.660;10.164;2023-07-13T13:47:29;95756.88;;;25.58;33.68